Latest Weather Observations for Morawa Airport

IDW60801

Issued at 11:35 pm WST Saturday 20 September 2014 (issued every 30 minutes, with the page automatically refreshed every 10 minutes)

About weather observations | Map of weather stations | Latest weather observations for WA | Other Formats
Station Details ID: 008296 Name: MORAWA AIRPORT Lat: -29.20 Lon: 116.02 Height: 271.4 m
Data from the previous 72 hours. | See also: Recent months at Morawa Airport
Date/Time
WST
Temp
°C
App
Temp
°C
Dew
Point
Rel
Hum
%
Delta-T
°C
Wind Press
QNH
hPa
Press
MSL
hPa
Rain
since 9 am
mm
Dir
 
Spd
km/h
Gust
km/h
Spd
kts
Gust
kts
20/11:30pm 15.8 13.6 7.8 59 4.1 NNW 9 11 5 6 1014.1 1013.7 0.0
20/11:00pm 16.7 14.4 7.4 54 4.7 NW 9 11 5 6 1014.3 1013.9 0.0
20/10:30pm 17.7 15.3 7.2 50 5.3 NW 9 13 5 7 1014.6 1014.2 0.0
20/10:00pm 18.6 15.2 7.7 49 5.6 WNW 15 22 8 12 1015.1 1014.7 0.0
20/09:30pm 18.4 16.1 8.9 54 5.0 WNW 11 15 6 8 1015.2 1014.8 0.0
20/09:00pm 19.1 17.0 8.1 49 5.7 NW 9 17 5 9 1015.4 1015.0 0.0
20/08:30pm 20.0 16.7 8.0 46 6.3 W 15 20 8 11 1015.5 1015.1 0.0
20/08:00pm 21.0 17.2 7.6 42 7.0 WNW 17 22 9 12 1015.3 1014.9 0.0
20/07:30pm 21.9 17.5 6.6 37 7.9 WNW 19 24 10 13 1014.9 1014.5 0.0
20/07:00pm 22.7 17.9 5.6 33 8.7 WNW 20 28 11 15 1014.6 1014.2 0.0
20/06:30pm 23.4 17.4 5.3 31 9.2 WNW 26 33 14 18 1014.3 1013.9 0.0
20/06:00pm 24.3 17.0 5.6 30 9.6 WNW 33 46 18 25 1013.9 1013.5 0.0
20/05:30pm 25.3 18.2 5.5 28 10.2 W 32 44 17 24 1013.6 1013.2 0.0
20/05:10pm 26.1 19.5 6.2 28 10.5 W 30 48 16 26 1013.2 1012.9 0.0
20/05:00pm 26.4 19.2 5.9 27 10.7 W 33 46 18 25 1013.2 1012.9 0.0
20/04:30pm 27.4 20.4 6.8 27 11.0 W 33 46 18 25 1012.8 1012.5 0.0
20/04:00pm 28.7 21.2 6.1 24 12.0 W 35 48 19 26 1012.3 1011.9 0.0
20/03:39pm 29.9 22.7 5.9 22 12.8 W 33 52 18 28 1011.9 1011.5 0.0
20/03:30pm 30.2 22.5 5.5 21 13.1 W 35 50 19 27 1011.7 1011.3 0.0
20/03:01pm 34.7 26.3 -2.8 9 17.9 NNW 32 52 17 28 1011.4 1011.0 0.0
20/03:00pm 34.7 26.4 -1.4 10 17.6 NNW 32 46 17 25 1011.3 1010.9 0.0
20/02:33pm 34.4 25.4 -3.0 9 17.7 NNW 35 54 19 29 1011.5 1011.1 0.0
20/02:30pm 34.7 26.1 -2.8 9 17.9 NNW 33 50 18 27 1011.5 1011.1 0.0
20/02:00pm 34.5 25.9 -2.9 9 17.8 NNW 33 59 18 32 1011.7 1011.3 0.0
20/01:40pm 34.4 25.9 -3.0 9 17.7 N 32 50 17 27 1011.9 1011.5 0.0
20/01:30pm 34.8 25.8 -2.7 9 17.9 N 35 50 19 27 1012.0 1011.6 0.0
20/01:19pm 34.6 26.1 -2.9 9 17.8 N 32 50 17 27 1012.2 1011.8 0.0
20/01:00pm 34.8 26.2 -2.7 9 17.9 N 33 52 18 28 1012.3 1011.9 0.0
20/12:30pm 34.3 26.8 -1.7 10 17.4 N 28 48 15 26 1012.7 1012.4 0.0
20/12:11pm 34.0 26.4 -1.9 10 17.3 N 28 50 15 27 1013.0 1012.7 0.0
20/12:00pm 33.7 26.7 -0.8 11 16.9 N 26 39 14 21 1013.2 1012.9 0.0
20/11:44am 33.4 25.6 -1.0 11 16.7 N 30 48 16 26 1013.5 1013.1 0.0
20/11:30am 33.4 26.5 0.1 12 16.5 NNE 26 35 14 19 1013.7 1013.3 0.0
20/11:06am 31.8 24.5 0.0 13 15.6 NNE 28 48 15 26 1014.0 1013.6 0.0
20/11:00am 31.8 24.6 1.0 14 15.3 NNE 28 43 15 23 1014.2 1013.8 0.0
20/10:30am 31.1 24.0 1.4 15 14.8 NNE 28 44 15 24 1014.7 1014.3 0.0
20/10:00am 29.4 22.4 1.8 17 13.7 NE 28 39 15 21 1015.1 1014.7 0.0
20/09:30am 27.8 21.3 2.8 20 12.5 NNE 26 39 14 21 1015.2 1014.8 0.0
20/09:00am 25.9 18.1 2.6 22 11.5 NE 33 43 18 23 1015.5 1015.1 0.0
20/08:30am 22.8 19.0 3.9 29 9.3 NNE 13 20 7 11 1015.8 1015.4 0.0
20/08:00am 21.0 16.2 2.8 30 8.7 NE 17 24 9 13 1015.9 1015.6 0.0
20/07:30am 18.4 14.8 3.1 36 7.2 NE 11 17 6 9 1016.0 1015.7 0.0
20/07:00am 15.2 12.7 3.7 46 5.3 NE 6 7 3 4 1016.0 1015.7 0.0
20/06:30am 13.3 10.7 3.4 51 4.5 NNE 6 7 3 4 1016.0 1015.7 0.0
20/06:00am 12.0 9.3 3.8 57 3.7 NNE 7 7 4 4 1015.8 1015.4 0.0
20/05:30am 11.0 8.5 3.8 61 3.2 NE 6 7 3 4 1015.6 1015.2 0.0
20/05:00am 10.5 8.5 4.4 66 2.8 NE 4 7 2 4 1015.8 1015.4 0.0
20/04:30am 11.0 9.3 4.2 63 3.1 NE 2 4 1 2 1015.7 1015.3 0.0
20/04:00am 11.2 8.7 4.0 61 3.3 NE 6 6 3 3 1016.2 1015.9 0.0
20/03:30am 11.5 9.0 3.5 58 3.6 NE 6 6 3 3 1016.3 1016.0 0.0
20/03:00am 11.6 9.6 4.3 61 3.3 NE 4 4 2 2 1016.3 1016.0 0.0
20/02:30am 11.6 9.6 4.6 62 3.2 NE 4 4 2 2 1016.4 1016.1 0.0
20/02:00am 12.4 10.7 3.9 56 3.9 NE 2 4 1 2 1016.7 1016.4 0.0
20/01:30am 12.7 11.0 4.2 56 3.9 NE 2 4 1 2 1017.2 1016.9 0.0
20/01:00am 13.8 11.7 4.1 52 4.5 NE 4 4 2 2 1017.8 1017.4 0.0
20/12:30am 13.8 11.6 3.6 50 4.7 ENE 4 6 2 3 1017.8 1017.4 0.0
20/12:00am 15.8 13.0 3.3 43 5.8 E 7 11 4 6 1018.0 1017.6 0.0
 
Date/Time
WST
Temp
°C
App
Temp
°C
Dew
Point
Rel
Hum
%
Delta-T
°C
Wind Press
QNH
hPa
Press
MSL
hPa
Rain
since 9 am
mm
Dir
 
Spd
km/h
Gust
km/h
Spd
kts
Gust
kts
19/11:30pm 16.3 13.7 3.0 41 6.1 ESE 6 9 3 5 1018.3 1017.9 0.0
19/11:00pm 16.0 13.1 2.8 41 6.0 ESE 7 7 4 4 1018.5 1018.1 0.0
19/10:30pm 16.8 13.9 2.8 39 6.5 ESE 7 9 4 5 1018.8 1018.4 0.0
19/10:00pm 17.8 15.1 2.5 36 7.1 ESE 6 9 3 5 1018.9 1018.5 0.0
19/09:30pm 17.2 14.3 2.4 37 6.8 SE 7 13 4 7 1019.2 1018.9 0.0
19/09:00pm 18.2 15.3 1.7 33 7.5 SE 6 11 3 6 1019.4 1019.1 0.0
19/08:30pm 17.9 14.5 1.8 34 7.4 SSE 9 11 5 6 1019.4 1019.1 0.0
19/08:00pm 18.9 15.9 1.9 32 7.8 SSE 7 9 4 5 1019.2 1018.9 0.0
19/07:30pm 19.7 16.7 2.1 31 8.2 SSE 7 7 4 4 1019.0 1018.6 0.0
19/07:00pm 21.0 17.6 1.8 28 9.0 SSE 9 11 5 6 1018.8 1018.4 0.0
19/06:30pm 21.9 18.7 1.0 25 9.7 SE 7 7 4 4 1018.5 1018.1 0.0
19/06:00pm 24.0 20.7 0.4 21 11.0 SE 7 11 4 6 1018.3 1017.9 0.0
19/05:30pm 26.5 22.5 0.3 18 12.4 SE 11 17 6 9 1018.2 1017.8 0.0
19/05:00pm 27.2 23.9 0.1 17 12.8 SSE 7 13 4 7 1018.1 1017.7 0.0
19/04:30pm 27.7 24.5 -0.4 16 13.3 ENE 6 15 3 8 1018.0 1017.6 0.0
19/04:00pm 27.5 24.4 0.3 17 13.0 S 6 13 3 7 1018.0 1017.6 0.0
19/03:30pm 27.5 24.2 0.3 17 13.0 E 7 15 4 8 1018.1 1017.7 0.0
19/03:00pm 27.6 24.7 2.6 20 12.4 ENE 7 13 4 7 1018.3 1017.9 0.0
19/02:30pm 27.1 24.1 2.2 20 12.3 ESE 7 17 4 9 1018.6 1018.2 0.0
19/02:00pm 26.8 23.4 4.0 23 11.6 ESE 11 17 6 9 1018.8 1018.4 0.0
19/01:30pm 25.9 21.9 2.6 22 11.5 E 13 22 7 12 1019.3 1019.0 0.0
19/01:00pm 26.5 23.0 5.5 26 10.9 E 13 19 7 10 1019.9 1019.6 0.0
19/12:30pm 25.3 21.2 4.4 26 10.6 ESE 15 24 8 13 1020.5 1020.2 0.0
19/12:00pm 24.9 20.8 6.1 30 9.8 E 17 26 9 14 1021.0 1020.7 0.0
19/11:30am 23.5 19.1 7.2 35 8.6 ESE 20 33 11 18 1021.5 1021.1 0.0
19/11:00am 23.2 19.2 8.1 38 8.0 ESE 19 32 10 17 1021.8 1021.4 0.0
19/10:30am 21.8 18.3 8.7 43 7.0 ESE 17 26 9 14 1022.3 1022.0 0.0
19/10:00am 20.6 16.9 9.5 49 6.0 ESE 19 26 10 14 1022.7 1022.4 0.0
19/09:30am 18.9 15.2 9.4 54 5.1 SE 19 26 10 14 1022.9 1022.6 0.0
19/09:00am 17.8 15.4 9.9 60 4.2 ESE 13 20 7 11 1023.1 1022.8 0.0
19/08:30am 15.5 13.2 10.3 71 2.8 SE 13 19 7 10 1023.2 1022.9 0.0
19/08:00am 14.4 11.4 10.8 79 1.9 SSE 17 22 9 12 1022.9 1022.6 0.0
19/07:30am 13.5 11.5 11.6 88 1.0 SSE 13 17 7 9 1022.4 1022.1 0.0
19/07:00am 13.0 10.5 12.2 95 0.4 SSE 17 22 9 12 1022.0 1021.6 0.0
19/06:30am 13.1 10.8 12.9 99 0.1 SSE 17 26 9 14 1021.8 1021.4 0.0
19/06:00am 13.3 11.4 13.1 99 0.1 SSE 15 20 8 11 1021.6 1021.2 0.0
19/05:30am 13.3 10.7 13.1 99 0.1 S 19 26 10 14 1021.4 1021.0 0.0
19/05:00am 13.3 9.7 13.1 99 0.1 S 24 33 13 18 1021.3 1020.9 0.0
19/04:30am 13.6 10.9 13.6 100 0.0 S 20 26 11 14 1021.1 1020.8 0.0
19/04:00am 13.5 11.8 13.5 100 0.0 S 15 20 8 11 1020.8 1020.5 0.0
19/03:30am 13.6 12.7 13.6 100 0.0 SSW 11 15 6 8 1020.6 1020.3 0.0
19/03:00am 13.1 12.4 13.1 100 0.0 SSW 9 19 5 10 1020.8 1020.5 0.0
19/02:30am 12.9 12.1 12.9 100 0.0 SSW 9 13 5 7 1020.8 1020.5 0.0
19/02:00am 12.3 11.9 12.3 100 0.0 SW 6 7 3 4 1020.8 1020.5 0.0
19/01:30am 12.7 12.2 12.7 100 0.0 SW 7 9 4 5 1020.9 1020.6 0.0
19/01:00am 13.0 12.6 13.0 100 0.0 SSW 7 9 4 5 1021.0 1020.7 0.0
19/12:30am 13.6 12.9 13.3 98 0.2 SSW 9 13 5 7 1021.0 1020.7 0.0
19/12:00am 14.2 12.4 13.2 94 0.6 SSW 15 20 8 11 1020.9 1020.6 0.0
 
Date/Time
WST
Temp
°C
App
Temp
°C
Dew
Point
Rel
Hum
%
Delta-T
°C
Wind Press
QNH
hPa
Press
MSL
hPa
Rain
since 9 am
mm
Dir
 
Spd
km/h
Gust
km/h
Spd
kts
Gust
kts
18/11:30pm 14.7 12.2 13.4 92 0.7 SSW 19 26 10 14 1020.9 1020.6 0.0
18/11:00pm 14.9 12.8 13.6 92 0.7 SSW 17 24 9 13 1021.0 1020.7 0.0
18/10:30pm 15.3 13.1 13.2 87 1.2 SSW 17 24 9 13 1020.9 1020.6 0.0
18/10:00pm 15.8 13.8 12.7 82 1.7 SSW 15 19 8 10 1020.7 1020.4 0.0
18/09:30pm 16.5 14.4 12.5 77 2.2 SSW 15 19 8 10 1020.9 1020.6 0.0
18/09:00pm 17.3 15.1 12.2 72 2.8 SW 15 20 8 11 1020.5 1020.2 0.0
18/08:30pm 18.2 15.5 11.7 66 3.6 SSW 17 26 9 14 1020.3 1020.0 0.0
18/08:00pm 19.0 15.7 11.6 62 4.1 SSW 20 30 11 16 1019.9 1019.6 0.0
18/07:30pm 20.0 16.7 11.0 56 5.0 SW 19 28 10 15 1019.4 1019.1 0.0
18/07:00pm 21.0 17.6 11.1 53 5.5 SW 20 30 11 16 1018.9 1018.5 0.0
18/06:30pm 21.9 18.7 11.3 51 6.0 SW 19 28 10 15 1018.3 1017.9 0.0
18/06:00pm 23.1 19.4 11.5 48 6.6 SW 22 33 12 18 1017.6 1017.2 0.0
18/05:30pm 24.1 19.4 12.1 47 6.9 WSW 28 41 15 22 1017.0 1016.7 0.0
18/05:00pm 25.4 21.2 12.3 44 7.6 SW 26 37 14 20 1016.6 1016.3 0.0
18/04:30pm 27.3 23.9 9.2 32 10.1 WSW 17 28 9 15 1016.2 1015.9 0.0
18/04:00pm 27.9 23.5 4.9 23 11.9 SSW 17 28 9 15 1015.9 1015.6 0.0
18/03:30pm 28.2 23.0 5.7 24 11.9 SW 22 32 12 17 1015.7 1015.3 0.0
18/03:00pm 28.5 24.0 7.1 26 11.6 SW 20 30 11 16 1015.6 1015.2 0.0
18/02:30pm 28.4 23.8 6.5 25 11.7 SSW 20 28 11 15 1015.5 1015.1 0.0
18/02:00pm 28.6 24.6 6.7 25 11.8 SW 17 22 9 12 1015.7 1015.3 0.0
18/01:30pm 28.1 23.0 6.2 25 11.6 S 22 26 12 14 1015.8 1015.4 0.0
18/01:00pm 27.2 23.9 8.1 30 10.4 WSW 15 24 8 13 1016.0 1015.7 0.0
18/12:30pm 26.8 24.0 10.1 35 9.4 SW 15 22 8 12 1016.4 1016.1 0.0
18/12:00pm 26.0 22.6 10.6 38 8.7 SW 19 28 10 15 1016.9 1016.6 0.0
18/11:30am 24.9 21.8 10.4 40 8.1 SSW 17 24 9 13 1017.2 1016.9 0.0
18/11:00am 23.6 20.7 11.0 45 7.1 SSW 17 24 9 13 1017.8 1017.4 0.0
18/10:30am 23.1 20.7 11.5 48 6.6 SSW 15 24 8 13 1017.9 1017.5 0.0
18/10:00am 21.8 18.6 11.8 53 5.7 SSW 20 28 11 15 1018.1 1017.7 0.0
18/09:30am 20.1 17.8 11.8 59 4.7 SSW 15 20 8 11 1017.9 1017.5 0.0
18/09:00am 18.8 16.3 12.3 66 3.7 SW 17 24 9 13 1018.0 1017.6 0.0
18/08:30am 17.9 16.6 12.6 71 3.0 SSW 11 19 6 10 1017.8 1017.4 0.0
18/08:00am 16.3 14.8 13.2 82 1.8 SW 13 19 7 10 1017.5 1017.1 0.0
18/07:30am 14.6 13.9 13.1 91 0.8 WSW 9 15 5 8 1017.2 1016.9 0.0
18/07:00am 13.1 11.8 12.6 97 0.3 W 11 15 6 8 1017.1 1016.8 0.0
18/06:30am 12.1 11.0 12.1 100 0.0 W 9 13 5 7 1016.8 1016.5 0.0
18/06:00am 12.0 10.9 11.8 99 0.1 W 9 17 5 9 1016.5 1016.2 0.0
18/05:30am 12.2 11.0 11.7 97 0.3 W 9 13 5 7 1016.2 1015.9 0.0
18/05:00am 12.5 11.6 11.4 93 0.6 W 7 11 4 6 1015.9 1015.6 0.0
18/04:30am 13.6 11.8 12.2 91 0.8 WSW 13 17 7 9 1015.7 1015.3 0.0
18/04:00am 13.3 11.9 12.2 93 0.6 WSW 11 15 6 8 1015.5 1015.1 0.0
18/03:30am 13.2 11.7 11.8 91 0.8 WSW 11 15 6 8 1015.4 1015.0 0.0
18/03:00am 13.7 12.6 11.8 88 1.0 SW 9 13 5 7 1015.4 1015.0 0.0
18/02:30am 13.9 12.6 11.1 83 1.5 SW 9 15 5 8 1015.5 1015.1 0.0
18/02:00am 14.4 12.9 10.6 78 2.0 SW 9 13 5 7 1015.5 1015.1 0.0
18/01:30am 15.1 12.4 10.5 74 2.5 SSW 15 19 8 10 1015.5 1015.1 0.0
18/01:00am 15.3 12.4 9.7 69 2.9 SW 15 20 8 11 1015.6 1015.2 0.0
18/12:30am 15.6 13.0 9.5 67 3.2 SW 13 19 7 10 1015.6 1015.2 0.0
18/12:00am 16.1 13.5 9.3 64 3.6 SW 13 19 7 10 1015.4 1015.0 0.0

Other Formats:

Comma delimited format used in spreadsheet applications
http://www.bom.gov.au/fwo/IDW60801/IDW60801.94417.axf

JavaScript Object Notation format (JSON) in row-major order
http://www.bom.gov.au/fwo/IDW60801/IDW60801.94417.json